Time;durP1;ratioP1;P1;durP2;ratioP2;P2;SDS_P1;SDS_P2;PMS_P1;PMS_P2;Temp;Humidity;BMP_temperature;BMP_pressure;BME280_temperature;BME280_humidity;BME280_pressure;Samples;Min_cycle;Max_cycle;Signal;HPM_P1;HPM_P2
2021/12/12 00:00:29;;;;;;;22.93;19.63;;;3.90;99.90;;;;;;5046938;28;20455;-67
2021/12/12 00:03:00;;;;;;;19.13;17.50;;;3.90;99.90;;;;;;5047758;28;20869;-68
2021/12/12 00:05:32;;;;;;;20.03;18.33;;;3.80;99.90;;;;;;5042125;28;20492;-70
2021/12/12 00:08:01;;;;;;;20.03;17.90;;;3.90;99.90;;;;;;5035632;28;20456;-68
2021/12/12 00:10:31;;;;;;;20.30;18.30;;;3.90;99.90;;;;;;5031981;28;21255;-70
2021/12/12 00:13:01;;;;;;;19.70;17.90;;;3.90;99.90;;;;;;5036278;28;20475;-71
2021/12/12 00:15:30;;;;;;;20.33;18.57;;;3.80;99.90;;;;;;5041856;28;20586;-72
2021/12/12 00:17:57;;;;;;;19.37;17.43;;;3.90;99.90;;;;;;5033279;28;21017;-70
2021/12/12 00:20:29;;;;;;;19.07;17.30;;;3.90;99.90;;;;;;5034455;28;20464;-71
2021/12/12 00:22:59;;;;;;;20.90;17.63;;;3.90;99.90;;;;;;5035309;28;21613;-72
2021/12/12 00:25:28;;;;;;;22.57;17.50;;;3.90;99.90;;;;;;5032075;28;20464;-69
2021/12/12 00:27:55;;;;;;;24.13;17.60;;;3.90;99.90;;;;;;5033502;28;20463;-70
2021/12/12 00:30:21;;;;;;;21.87;17.03;;;4.00;99.90;;;;;;5031893;28;20946;-69
2021/12/12 00:32:51;;;;;;;18.97;17.30;;;4.00;99.90;;;;;;5044798;28;20468;-69
2021/12/12 00:35:19;;;;;;;20.20;17.00;;;4.00;99.90;;;;;;5057466;28;20456;-70
2021/12/12 00:37:48;;;;;;;22.93;17.10;;;4.00;99.90;;;;;;5058153;28;20490;-68
2021/12/12 00:40:21;;;;;;;17.90;16.60;;;4.10;99.90;;;;;;5050585;28;20464;-69
2021/12/12 00:42:49;;;;;;;19.53;17.30;;;4.10;99.90;;;;;;5044590;28;20517;-71
2021/12/12 00:45:18;;;;;;;18.93;17.00;;;4.10;99.90;;;;;;5037249;28;20467;-70
2021/12/12 00:47:48;;;;;;;19.63;17.93;;;4.20;99.90;;;;;;5053462;28;20976;-70
2021/12/12 00:50:21;;;;;;;33.47;17.60;;;4.10;99.90;;;;;;5044528;28;21026;-70
2021/12/12 00:52:49;;;;;;;23.23;18.70;;;4.10;99.90;;;;;;5051992;28;20491;-69
2021/12/12 00:55:16;;;;;;;21.37;18.43;;;4.10;99.90;;;;;;5057415;28;20471;-68
2021/12/12 00:57:50;;;;;;;20.13;18.43;;;4.20;99.90;;;;;;5059058;28;20493;-67
2021/12/12 01:00:18;;;;;;;42.23;18.70;;;4.20;99.90;;;;;;5052081;28;20459;-68
2021/12/12 01:02:45;;;;;;;20.03;17.50;;;4.20;99.90;;;;;;5040788;28;20463;-69
2021/12/12 01:05:14;;;;;;;19.67;17.53;;;4.20;99.90;;;;;;5051573;28;20471;-68
2021/12/12 01:07:43;;;;;;;18.93;17.00;;;4.20;99.90;;;;;;5047937;28;20503;-69
2021/12/12 01:10:15;;;;;;;20.37;16.97;;;4.20;99.90;;;;;;5056290;28;20460;-68
2021/12/12 01:12:43;;;;;;;19.77;17.87;;;4.20;99.90;;;;;;5045166;28;21167;-69
2021/12/12 01:15:14;;;;;;;22.20;17.63;;;4.20;99.90;;;;;;5050640;28;20526;-68
2021/12/12 01:17:47;;;;;;;29.87;16.47;;;4.20;99.90;;;;;;5053611;28;20468;-68
2021/12/12 01:20:22;;;;;;;17.20;15.33;;;4.30;99.90;;;;;;5047945;28;20465;-69
2021/12/12 01:22:53;;;;;;;20.00;16.23;;;4.20;99.90;;;;;;5055956;28;20470;-68
2021/12/12 01:25:24;;;;;;;18.10;16.23;;;4.20;99.90;;;;;;5053082;28;20459;-70
2021/12/12 01:27:52;;;;;;;26.20;17.10;;;4.20;99.90;;;;;;5049567;28;20554;-68
2021/12/12 01:30:20;;;;;;;25.67;17.47;;;4.20;99.90;;;;;;5049380;28;20954;-69
2021/12/12 01:32:49;;;;;;;23.87;17.80;;;4.30;99.90;;;;;;5051741;28;20476;-70
2021/12/12 01:35:20;;;;;;;20.53;18.60;;;4.20;99.90;;;;;;5053879;28;20470;-70
2021/12/12 01:38:51;;;;;;;27.90;18.47;;;4.20;99.90;;;;;;5044594;28;20467;-70
2021/12/12 01:40:40;;;;;;;20.27;18.23;;;4.20;99.90;;;;;;5039188;28;20514;-70
2021/12/12 01:43:16;;;;;;;22.57;18.37;;;4.20;99.90;;;;;;5044543;28;20513;-70
2021/12/12 01:45:46;;;;;;;23.37;18.37;;;4.10;99.90;;;;;;5045891;28;20459;-70
2021/12/12 01:48:19;;;;;;;18.83;17.20;;;4.10;99.90;;;;;;5047727;28;20459;-68
2021/12/12 01:50:51;;;;;;;19.53;17.00;;;4.00;99.90;;;;;;5048029;28;20571;-72
2021/12/12 01:53:21;;;;;;;23.33;17.90;;;4.00;99.90;;;;;;5046044;28;20837;-69
2021/12/12 01:55:54;;;;;;;27.03;18.70;;;4.00;99.90;;;;;;5050431;28;20550;-67
2021/12/12 01:58:24;;;;;;;19.47;17.50;;;4.00;99.90;;;;;;5043470;28;20487;-72
2021/12/12 02:00:55;;;;;;;33.70;19.03;;;4.10;99.90;;;;;;5051587;28;20475;-71
2021/12/12 02:03:24;;;;;;;25.80;17.70;;;4.10;99.90;;;;;;5046399;28;20476;-70
2021/12/12 02:05:55;;;;;;;25.53;18.23;;;4.00;99.90;;;;;;5049837;28;20463;-73
2021/12/12 02:08:23;;;;;;;19.70;16.70;;;4.10;99.90;;;;;;5046402;28;20756;-72
2021/12/12 02:10:53;;;;;;;20.10;17.70;;;4.10;99.90;;;;;;5051795;28;20462;-71
2021/12/12 02:13:23;;;;;;;27.47;18.20;;;4.10;99.90;;;;;;5060167;28;20466;-71
2021/12/12 02:15:54;;;;;;;25.37;17.60;;;4.10;99.90;;;;;;5055534;28;20464;-73
2021/12/12 02:18:28;;;;;;;20.07;17.90;;;4.10;99.90;;;;;;5056222;28;20565;-71
2021/12/12 02:21:08;;;;;;;23.37;17.83;;;4.20;99.90;;;;;;5060741;28;20455;-70
2021/12/12 02:23:57;;;;;;;19.67;17.63;;;4.30;99.90;;;;;;5049239;28;20463;-72
2021/12/12 02:37:26;;;;;;;21.00;17.43;;;4.50;99.90;;;;;;5050798;28;20506;-70
2021/12/12 02:39:55;;;;;;;19.47;17.43;;;4.50;99.90;;;;;;5054850;28;20505;-67
2021/12/12 02:42:23;;;;;;;22.93;18.77;;;4.60;99.90;;;;;;5054515;28;20545;-70
2021/12/12 02:44:56;;;;;;;19.67;17.00;;;4.60;99.90;;;;;;5052831;28;20499;-70
2021/12/12 02:47:32;;;;;;;24.23;18.00;;;4.60;99.90;;;;;;5049545;28;20981;-68
2021/12/12 02:50:10;;;;;;;22.83;17.90;;;4.60;99.90;;;;;;5049908;28;20466;-67
2021/12/12 02:52:39;;;;;;;20.97;18.80;;;4.70;99.90;;;;;;5058959;28;20552;-67
2021/12/12 02:55:13;;;;;;;20.27;18.20;;;4.70;99.90;;;;;;5048505;28;20459;-69
2021/12/12 02:57:41;;;;;;;19.20;16.70;;;4.70;99.90;;;;;;5050416;28;20463;-69
2021/12/12 03:00:10;;;;;;;18.00;16.30;;;4.80;99.90;;;;;;5055823;28;20665;-70
2021/12/12 03:02:45;;;;;;;20.37;17.43;;;4.80;99.90;;;;;;5051908;28;20555;-69
2021/12/12 03:05:13;;;;;;;18.80;16.90;;;4.80;99.90;;;;;;5052467;28;20459;-70
2021/12/12 03:07:40;;;;;;;18.73;16.80;;;4.80;99.90;;;;;;5054500;28;20456;-67
2021/12/12 03:10:16;;;;;;;25.73;18.07;;;4.70;99.90;;;;;;5052808;28;21004;-66
2021/12/12 03:12:44;;;;;;;27.30;17.57;;;4.70;99.90;;;;;;5058078;28;20474;-68
2021/12/12 03:15:15;;;;;;;23.10;17.40;;;4.70;99.90;;;;;;5060034;28;20463;-69
2021/12/12 03:17:43;;;;;;;25.20;17.90;;;4.70;99.90;;;;;;5054983;28;20541;-67
2021/12/12 03:20:23;;;;;;;34.23;21.50;;;4.70;99.90;;;;;;5052549;28;20494;-69
2021/12/12 03:22:52;;;;;;;28.40;25.70;;;4.70;99.90;;;;;;5055141;28;20471;-66
2021/12/12 03:25:20;;;;;;;33.97;29.50;;;4.70;99.90;;;;;;5055957;28;20973;-69
2021/12/12 03:27:47;;;;;;;34.80;31.43;;;4.70;99.90;;;;;;5049422;28;20456;-70
2021/12/12 03:30:15;;;;;;;36.17;32.50;;;4.70;99.90;;;;;;5050534;28;20459;-69
2021/12/12 03:32:42;;;;;;;34.37;31.43;;;4.70;99.90;;;;;;5056447;28;20471;-69
2021/12/12 03:35:10;;;;;;;33.60;30.30;;;4.70;99.90;;;;;;5057038;28;20590;-69
2021/12/12 03:37:39;;;;;;;36.83;32.97;;;4.70;99.90;;;;;;5057106;28;20526;-69
2021/12/12 03:40:12;;;;;;;34.40;31.13;;;4.70;99.90;;;;;;5054246;28;21623;-69
2021/12/12 03:42:44;;;;;;;35.33;30.77;;;4.70;99.90;;;;;;5059771;28;20498;-70
2021/12/12 03:45:11;;;;;;;34.70;31.60;;;4.80;99.90;;;;;;5050959;28;20829;-67
2021/12/12 03:47:42;;;;;;;36.23;32.40;;;4.80;99.90;;;;;;5051138;28;20471;-69
2021/12/12 03:50:13;;;;;;;34.70;31.27;;;4.80;99.90;;;;;;5056655;28;20470;-67
2021/12/12 03:52:40;;;;;;;34.03;30.87;;;4.90;99.90;;;;;;5047334;28;20494;-68
2021/12/12 03:55:09;;;;;;;34.33;30.90;;;4.80;99.90;;;;;;5055237;28;20463;-70
2021/12/12 03:57:36;;;;;;;40.40;30.90;;;4.80;99.90;;;;;;5053379;28;20499;-69
2021/12/12 04:00:08;;;;;;;33.30;30.03;;;4.70;99.90;;;;;;5052830;28;20502;-73
2021/12/12 04:02:36;;;;;;;32.63;29.87;;;4.70;99.90;;;;;;5041290;28;20467;-70
2021/12/12 04:05:04;;;;;;;35.53;30.80;;;4.60;99.90;;;;;;5041647;28;20469;-71
2021/12/12 04:07:32;;;;;;;33.57;29.50;;;4.50;99.90;;;;;;5053540;28;21037;-72
2021/12/12 04:10:00;;;;;;;33.57;29.97;;;4.50;99.90;;;;;;5055978;28;20881;-73
2021/12/12 04:12:27;;;;;;;31.53;28.23;;;4.50;99.90;;;;;;5052961;28;20459;-72
2021/12/12 04:14:57;;;;;;;34.63;28.67;;;4.60;99.90;;;;;;5049701;28;20492;-70
2021/12/12 04:17:28;;;;;;;32.57;29.10;;;4.50;99.90;;;;;;5044148;28;20478;-72
2021/12/12 04:19:58;;;;;;;37.63;29.63;;;4.50;99.90;;;;;;5040107;28;20496;-72
2021/12/12 04:22:25;;;;;;;32.23;28.90;;;4.50;99.90;;;;;;5042397;28;21047;-70
2021/12/12 04:24:55;;;;;;;34.97;28.30;;;4.50;99.90;;;;;;5031069;28;20525;-71
2021/12/12 04:27:23;;;;;;;31.37;27.97;;;4.50;99.90;;;;;;5028066;28;21026;-71
2021/12/12 04:29:53;;;;;;;29.90;27.33;;;4.50;99.90;;;;;;5026735;28;20467;-70
2021/12/12 04:32:22;;;;;;;30.73;27.70;;;4.60;99.90;;;;;;5030779;28;20467;-72
2021/12/12 04:34:53;;;;;;;31.10;28.00;;;4.60;99.90;;;;;;5038071;28;20453;-73
2021/12/12 04:37:22;;;;;;;32.70;29.30;;;4.60;99.90;;;;;;5028751;28;20945;-72
2021/12/12 04:39:53;;;;;;;31.77;28.63;;;4.70;99.90;;;;;;5030150;28;20557;-73
2021/12/12 04:42:23;;;;;;;32.33;28.97;;;4.70;99.90;;;;;;5028847;28;20476;-73
2021/12/12 04:44:52;;;;;;;32.83;29.90;;;4.70;99.90;;;;;;5028716;28;20468;-71
2021/12/12 04:50:21;;;;;;;34.20;28.43;;;4.80;99.90;;;;;;5031438;28;20962;-72
2021/12/12 04:52:53;;;;;;;33.13;29.60;;;4.80;99.90;;;;;;5027922;28;20852;-71
2021/12/12 04:55:26;;;;;;;32.37;29.53;;;4.80;99.90;;;;;;5028798;28;20478;-70
2021/12/12 04:58:00;;;;;;;31.53;28.53;;;4.90;99.90;;;;;;5028568;28;21187;-72
2021/12/12 05:00:31;;;;;;;33.37;29.77;;;4.90;99.90;;;;;;5033459;28;20608;-70
2021/12/12 05:03:12;;;;;;;33.20;29.80;;;4.90;99.90;;;;;;5054764;28;20462;-73
2021/12/12 05:05:48;;;;;;;32.87;29.33;;;4.90;99.90;;;;;;5042167;28;20463;-73
2021/12/12 05:08:19;;;;;;;32.33;29.40;;;4.80;99.90;;;;;;5045690;28;20471;-70
2021/12/12 05:10:52;;;;;;;31.30;28.10;;;4.80;99.90;;;;;;5050820;28;20472;-73
2021/12/12 05:13:22;;;;;;;30.20;27.63;;;4.80;99.90;;;;;;5055160;28;20470;-73
2021/12/12 05:15:52;;;;;;;31.27;28.07;;;4.80;99.90;;;;;;5049170;28;20451;-72
2021/12/12 05:18:27;;;;;;;31.10;28.07;;;4.70;99.90;;;;;;5053556;28;20571;-72
2021/12/12 05:20:59;;;;;;;35.20;28.30;;;4.70;99.90;;;;;;5051838;28;20855;-72
2021/12/12 05:23:28;;;;;;;29.70;27.30;;;4.80;99.90;;;;;;5049574;28;20468;-74
2021/12/12 05:25:59;;;;;;;31.53;27.90;;;4.80;99.90;;;;;;5043052;28;20470;-71
2021/12/12 05:28:31;;;;;;;31.70;28.63;;;4.80;99.90;;;;;;5054914;28;20460;-70
2021/12/12 05:31:00;;;;;;;30.90;27.67;;;4.80;99.90;;;;;;5051122;28;21303;-70
2021/12/12 05:33:29;;;;;;;31.73;29.03;;;4.90;99.90;;;;;;5053040;28;21028;-71
2021/12/12 05:35:57;;;;;;;30.60;28.00;;;5.00;99.90;;;;;;5053241;28;20488;-73
2021/12/12 05:38:26;;;;;;;33.20;29.97;;;5.00;99.90;;;;;;5054542;28;21218;-71
2021/12/12 05:40:53;;;;;;;31.00;27.53;;;5.00;99.90;;;;;;5046540;28;20565;-73
2021/12/12 05:43:21;;;;;;;37.30;29.20;;;5.00;99.90;;;;;;5053797;28;21444;-73
2021/12/12 05:45:51;;;;;;;30.80;27.53;;;5.00;99.90;;;;;;5051840;28;20466;-73
2021/12/12 05:48:19;;;;;;;30.73;27.67;;;5.00;99.90;;;;;;5051394;28;20966;-72
2021/12/12 05:50:46;;;;;;;29.03;26.53;;;5.10;99.90;;;;;;5057982;28;20459;-70
2021/12/12 05:53:15;;;;;;;29.40;26.80;;;5.10;99.90;;;;;;5053033;28;20487;-71
2021/12/12 05:55:44;;;;;;;33.07;28.13;;;5.10;99.90;;;;;;5049069;28;20459;-73
2021/12/12 05:58:14;;;;;;;31.93;27.20;;;5.00;99.90;;;;;;5053307;28;20466;-71
2021/12/12 06:00:47;;;;;;;29.67;27.40;;;5.10;99.90;;;;;;5052359;28;21121;-72
2021/12/12 06:03:16;;;;;;;40.20;28.67;;;5.10;99.90;;;;;;5046210;28;20464;-73
2021/12/12 06:05:43;;;;;;;31.73;28.40;;;5.10;99.90;;;;;;5050905;28;20464;-71
2021/12/12 06:08:12;;;;;;;28.40;26.10;;;5.10;99.90;;;;;;5051499;28;20471;-73
2021/12/12 06:10:43;;;;;;;30.30;27.30;;;5.20;99.90;;;;;;5049295;28;20468;-74
2021/12/12 06:13:13;;;;;;;29.43;26.83;;;5.20;99.90;;;;;;5045214;28;20463;-74
2021/12/12 06:15:40;;;;;;;29.47;26.50;;;5.30;99.90;;;;;;5046399;28;20546;-72
2021/12/12 06:18:09;;;;;;;29.23;26.80;;;5.20;99.90;;;;;;5051240;28;20964;-74
2021/12/12 06:20:36;;;;;;;29.90;26.90;;;5.20;99.90;;;;;;5048519;28;20490;-74
2021/12/12 06:23:03;;;;;;;29.47;26.87;;;5.30;99.90;;;;;;5056575;28;20467;-73
2021/12/12 06:25:30;;;;;;;28.40;26.03;;;5.30;99.90;;;;;;5052994;28;21223;-71
2021/12/12 06:27:58;;;;;;;28.67;26.07;;;5.40;99.90;;;;;;5056192;28;20462;-72
2021/12/12 06:30:26;;;;;;;30.40;27.60;;;5.40;99.90;;;;;;5054741;28;20901;-74
2021/12/12 06:32:53;;;;;;;28.33;26.10;;;5.40;99.90;;;;;;5057517;28;20996;-73
2021/12/12 06:35:20;;;;;;;28.20;25.90;;;5.40;99.90;;;;;;5056130;28;20462;-72
2021/12/12 06:37:48;;;;;;;26.63;24.73;;;5.40;99.90;;;;;;5059349;28;20469;-72
2021/12/12 06:40:19;;;;;;;28.93;26.40;;;5.50;99.90;;;;;;5060816;28;21012;-74
2021/12/12 06:42:47;;;;;;;25.83;24.13;;;5.60;99.90;;;;;;5060678;28;20509;-75
2021/12/12 06:45:17;;;;;;;26.50;24.80;;;5.80;99.90;;;;;;5055484;28;20455;-74
2021/12/12 06:47:45;;;;;;;28.37;26.03;;;5.70;99.90;;;;;;5051575;28;20942;-70
2021/12/12 06:50:12;;;;;;;29.50;26.40;;;5.60;99.90;;;;;;5047513;28;20468;-73
2021/12/12 06:52:40;;;;;;;28.27;26.03;;;5.60;99.90;;;;;;5046893;28;20488;-73
2021/12/12 06:55:10;;;;;;;28.50;25.90;;;5.60;99.90;;;;;;5052607;28;20463;-73
2021/12/12 06:57:38;;;;;;;28.13;26.07;;;5.80;99.90;;;;;;5045027;28;21307;-71
2021/12/12 07:00:08;;;;;;;30.20;26.73;;;5.90;99.90;;;;;;5054371;28;20494;-72
2021/12/12 07:02:38;;;;;;;27.77;25.50;;;6.00;99.90;;;;;;5047346;28;20467;-72
2021/12/12 07:05:07;;;;;;;28.37;26.37;;;6.00;99.90;;;;;;5053920;28;20474;-74
2021/12/12 07:07:35;;;;;;;27.17;25.33;;;6.10;99.90;;;;;;5051970;28;20954;-74
2021/12/12 07:10:02;;;;;;;27.93;26.07;;;6.20;99.90;;;;;;5058650;28;20580;-72
2021/12/12 07:12:29;;;;;;;26.60;24.80;;;6.40;99.90;;;;;;5052536;28;21057;-72
2021/12/12 07:14:56;;;;;;;29.50;27.50;;;6.30;99.90;;;;;;5050487;28;20551;-74
2021/12/12 07:17:24;;;;;;;28.90;26.70;;;6.30;99.90;;;;;;5047277;28;20473;-75
2021/12/12 07:19:54;;;;;;;29.53;27.70;;;6.30;99.90;;;;;;5057480;28;20510;-72
2021/12/12 07:22:21;;;;;;;28.43;26.73;;;6.40;99.90;;;;;;5051992;28;20489;-73
2021/12/12 07:24:49;;;;;;;28.43;26.73;;;6.50;99.90;;;;;;5060063;28;20460;-74
2021/12/12 07:27:18;;;;;;;29.27;26.53;;;6.60;99.90;;;;;;5048530;28;20490;-73
2021/12/12 07:29:46;;;;;;;29.03;27.03;;;6.60;99.90;;;;;;5048931;28;21158;-71
2021/12/12 07:32:15;;;;;;;27.83;26.20;;;6.80;99.90;;;;;;5049599;28;20562;-72
2021/12/12 07:34:42;;;;;;;28.27;26.57;;;6.90;99.90;;;;;;5049069;28;20474;-74
2021/12/12 07:37:11;;;;;;;26.90;25.07;;;6.90;99.90;;;;;;5051061;28;20505;-73
2021/12/12 07:39:40;;;;;;;27.80;26.10;;;6.90;99.90;;;;;;5056072;28;20910;-74
2021/12/12 07:42:08;;;;;;;26.63;25.03;;;6.90;99.90;;;;;;5058917;28;20481;-73
2021/12/12 07:44:38;;;;;;;27.30;25.50;;;7.00;99.90;;;;;;5052283;28;20474;-74
2021/12/12 07:47:08;;;;;;;27.23;25.53;;;7.00;99.90;;;;;;5052491;28;20465;-71
2021/12/12 07:49:37;;;;;;;28.37;26.57;;;7.00;99.90;;;;;;5045100;28;20528;-74
2021/12/12 07:52:06;;;;;;;27.63;26.03;;;7.00;99.90;;;;;;5051192;28;20504;-73
2021/12/12 07:54:35;;;;;;;27.17;25.47;;;7.00;99.90;;;;;;5059360;28;20459;-71
2021/12/12 07:57:02;;;;;;;28.23;26.50;;;7.00;99.90;;;;;;5056205;28;20516;-71
2021/12/12 07:59:29;;;;;;;28.03;26.33;;;7.10;99.90;;;;;;5050782;28;20466;-73
2021/12/12 08:01:57;;;;;;;28.40;26.67;;;7.00;99.90;;;;;;5052040;28;20489;-72
2021/12/12 08:04:29;;;;;;;27.30;25.43;;;7.10;99.90;;;;;;5052811;28;21040;-74
2021/12/12 08:06:56;;;;;;;26.63;24.93;;;7.20;99.90;;;;;;5050269;28;20574;-72
2021/12/12 08:09:25;;;;;;;24.27;23.07;;;7.20;99.90;;;;;;5054755;28;20466;-72
2021/12/12 08:11:54;;;;;;;25.20;23.30;;;7.30;99.90;;;;;;5049985;28;20860;-74
2021/12/12 08:14:25;;;;;;;24.60;23.10;;;7.30;99.90;;;;;;5041898;28;21309;-74
2021/12/12 08:16:53;;;;;;;25.40;23.63;;;7.30;99.90;;;;;;5046781;28;20471;-72
2021/12/12 08:19:23;;;;;;;23.17;21.97;;;7.30;99.90;;;;;;5047045;28;20903;-71
2021/12/12 08:21:53;;;;;;;22.40;21.20;;;7.30;99.90;;;;;;5051936;28;20495;-72
2021/12/12 08:24:21;;;;;;;24.17;22.67;;;7.30;99.90;;;;;;5054231;28;20547;-72
2021/12/12 08:26:48;;;;;;;23.50;22.20;;;7.30;99.90;;;;;;5044352;28;20972;-73
2021/12/12 08:29:17;;;;;;;23.70;22.27;;;7.30;99.90;;;;;;5046590;28;20467;-72
2021/12/12 08:31:46;;;;;;;23.20;21.90;;;7.30;99.90;;;;;;5056271;28;21023;-71
2021/12/12 08:34:13;;;;;;;24.40;23.00;;;7.40;99.90;;;;;;5044829;28;20460;-72
2021/12/12 08:36:44;;;;;;;23.33;22.00;;;7.40;99.90;;;;;;5049812;28;20838;-72
2021/12/12 08:39:12;;;;;;;23.60;22.10;;;7.40;99.90;;;;;;5050462;28;20468;-71
2021/12/12 08:41:40;;;;;;;23.40;22.10;;;7.40;99.90;;;;;;5054726;28;20494;-72
2021/12/12 08:44:10;;;;;;;23.10;21.80;;;7.50;99.90;;;;;;5048806;28;20472;-74
2021/12/12 08:46:42;;;;;;;23.80;22.40;;;7.50;99.90;;;;;;5048558;28;20465;-73
2021/12/12 08:49:11;;;;;;;22.83;21.53;;;7.50;99.90;;;;;;5049641;28;20473;-71
2021/12/12 08:51:44;;;;;;;22.73;21.43;;;7.50;99.90;;;;;;5050138;28;21031;-73
2021/12/12 08:54:15;;;;;;;22.80;21.40;;;7.50;99.90;;;;;;5057930;28;20458;-73
2021/12/12 08:56:45;;;;;;;23.13;21.83;;;7.50;99.90;;;;;;5051717;28;20469;-70
2021/12/12 08:59:16;;;;;;;23.33;21.97;;;7.60;99.90;;;;;;5048460;28;20468;-73
2021/12/12 09:01:46;;;;;;;23.57;22.27;;;7.50;99.90;;;;;;5052710;28;20515;-71
2021/12/12 09:04:13;;;;;;;23.20;21.90;;;7.60;99.90;;;;;;5048627;28;20470;-71
2021/12/12 09:06:44;;;;;;;23.80;22.30;;;7.70;99.90;;;;;;5047924;28;20473;-72
2021/12/12 09:09:16;;;;;;;23.70;22.30;;;7.70;99.90;;;;;;5049865;28;20469;-72
2021/12/12 09:11:48;;;;;;;22.57;21.10;;;7.70;99.90;;;;;;5051898;28;20473;-74
2021/12/12 09:14:18;;;;;;;22.40;21.20;;;7.70;99.90;;;;;;5057597;28;20571;-71
2021/12/12 09:16:55;;;;;;;23.90;22.40;;;7.80;99.90;;;;;;5045776;28;20468;-71
2021/12/12 09:19:27;;;;;;;23.10;21.60;;;7.80;99.90;;;;;;5043856;28;20462;-71
2021/12/12 09:21:58;;;;;;;23.20;21.80;;;7.90;99.90;;;;;;5046692;28;20586;-72
2021/12/12 09:24:43;;;;;;;22.93;21.63;;;7.90;99.90;;;;;;5047654;28;20848;-72
2021/12/12 09:27:14;;;;;;;22.43;20.87;;;7.90;99.90;;;;;;5041528;28;20454;-71
2021/12/12 09:29:46;;;;;;;21.47;20.37;;;8.00;99.90;;;;;;5045270;28;20463;-71
2021/12/12 09:32:19;;;;;;;20.43;19.33;;;8.00;99.90;;;;;;5045634;28;20465;-71
2021/12/12 09:34:53;;;;;;;19.77;18.60;;;8.10;99.90;;;;;;5041796;28;20463;-72
2021/12/12 09:37:31;;;;;;;18.07;17.17;;;8.10;99.90;;;;;;5050560;28;20460;-71
2021/12/12 09:40:03;;;;;;;18.60;17.53;;;8.20;99.90;;;;;;5046711;28;20467;-71
2021/12/12 09:43:00;;;;;;;18.07;17.10;;;8.20;99.90;;;;;;5047616;28;20505;-71
2021/12/12 09:46:18;;;;;;;18.50;17.50;;;8.10;99.90;;;;;;5052644;28;20480;-71
2021/12/12 09:52:40;;;;;;;17.20;16.30;;;8.40;99.90;;;;;;5052398;28;20498;-72
2021/12/12 09:55:11;;;;;;;18.17;17.07;;;8.20;99.90;;;;;;5013167;28;20470;-73
2021/12/12 09:57:44;;;;;;;17.53;16.50;;;8.40;99.90;;;;;;5050462;28;20996;-73
2021/12/12 10:00:17;;;;;;;18.27;17.03;;;8.40;99.90;;;;;;5054946;28;20549;-72
2021/12/12 10:03:02;;;;;;;18.20;17.10;;;8.50;99.90;;;;;;5055368;28;20506;-71
2021/12/12 10:05:42;;;;;;;17.70;16.70;;;8.50;99.90;;;;;;5047597;28;20467;-71
2021/12/12 10:08:17;;;;;;;16.87;15.87;;;8.50;99.90;;;;;;5049333;28;20906;-70
2021/12/12 10:10:52;;;;;;;17.40;16.00;;;8.50;99.90;;;;;;5049758;28;20479;-71
2021/12/12 10:13:25;;;;;;;17.40;16.50;;;8.50;99.90;;;;;;5063938;28;20466;-71
2021/12/12 10:15:56;;;;;;;17.90;16.60;;;8.60;99.90;;;;;;5056978;28;20863;-70
2021/12/12 10:18:30;;;;;;;17.60;16.37;;;8.60;99.90;;;;;;5060016;28;20458;-70
2021/12/12 10:21:08;;;;;;;17.87;16.73;;;8.60;99.90;;;;;;5064060;28;20553;-73
2021/12/12 10:23:51;;;;;;;17.63;16.63;;;8.60;99.90;;;;;;5052118;28;20462;-71
2021/12/12 10:26:24;;;;;;;17.77;16.57;;;8.70;99.90;;;;;;5057333;28;20907;-74
2021/12/12 10:28:54;;;;;;;17.93;16.80;;;8.70;99.90;;;;;;5052111;28;20459;-70
2021/12/12 10:31:27;;;;;;;18.17;17.07;;;8.70;99.90;;;;;;5054339;28;20513;-70
2021/12/12 10:33:58;;;;;;;18.70;17.33;;;8.60;99.90;;;;;;5060947;28;20476;-73
2021/12/12 10:36:33;;;;;;;19.50;18.07;;;8.50;99.90;;;;;;5063108;28;20975;-73
2021/12/12 10:39:05;;;;;;;20.00;18.70;;;8.40;99.90;;;;;;5061509;28;20468;-70
2021/12/12 10:41:38;;;;;;;21.30;19.97;;;8.60;99.90;;;;;;5049070;28;20486;-70
2021/12/12 10:44:10;;;;;;;20.53;19.20;;;8.60;99.90;;;;;;5046404;28;20463;-70
2021/12/12 10:46:44;;;;;;;22.00;20.50;;;8.50;99.90;;;;;;5057329;28;20480;-70
2021/12/12 10:49:17;;;;;;;21.30;19.50;;;8.40;99.90;;;;;;5058129;28;20466;-71
2021/12/12 10:51:50;;;;;;;21.50;19.90;;;8.40;99.90;;;;;;5059023;28;20462;-72
2021/12/12 10:54:23;;;;;;;22.90;21.30;;;8.30;99.90;;;;;;5058319;28;20469;-72
2021/12/12 10:56:56;;;;;;;23.80;21.53;;;8.20;99.90;;;;;;5054702;28;20932;-70
2021/12/12 10:59:30;;;;;;;25.17;23.07;;;8.30;99.90;;;;;;5060617;28;21019;-70
2021/12/12 11:02:03;;;;;;;23.47;22.07;;;8.40;99.90;;;;;;5055767;28;20495;-69
2021/12/12 11:04:40;;;;;;;23.80;22.40;;;8.50;99.90;;;;;;5054986;28;20471;-69
2021/12/12 11:07:13;;;;;;;24.83;23.23;;;8.50;99.90;;;;;;5057687;28;20769;-69
2021/12/12 11:09:45;;;;;;;25.13;23.10;;;8.60;99.90;;;;;;5061107;28;20460;-69
2021/12/12 11:12:17;;;;;;;25.10;23.23;;;8.60;99.90;;;;;;5052840;28;20478;-69
2021/12/12 11:14:54;;;;;;;24.77;22.63;;;8.60;99.90;;;;;;5051165;28;20466;-71
2021/12/12 11:17:27;;;;;;;24.47;22.50;;;8.70;99.90;;;;;;5055758;28;20500;-72
2021/12/12 11:20:01;;;;;;;23.80;22.10;;;8.80;99.90;;;;;;5057919;28;20810;-69
2021/12/12 11:22:33;;;;;;;23.77;22.00;;;8.80;99.90;;;;;;5063665;28;20486;-68
2021/12/12 11:25:05;;;;;;;22.93;21.30;;;8.70;99.90;;;;;;5059182;28;20459;-69
2021/12/12 11:27:37;;;;;;;23.13;21.63;;;8.90;99.90;;;;;;5062118;28;20514;-69
2021/12/12 11:30:09;;;;;;;24.10;21.77;;;8.90;99.90;;;;;;5043737;28;20478;-70
2021/12/12 11:32:36;;;;;;;22.90;21.20;;;8.90;99.90;;;;;;5050820;28;20463;-69
2021/12/12 11:35:07;;;;;;;22.87;21.20;;;8.90;99.90;;;;;;5063970;28;20807;-69
2021/12/12 11:37:42;;;;;;;22.17;20.57;;;9.00;99.90;;;;;;5050724;28;20580;-72
2021/12/12 11:40:19;;;;;;;21.50;20.20;;;9.00;99.90;;;;;;5056897;28;20522;-69
2021/12/12 11:42:49;;;;;;;23.33;21.53;;;8.90;99.90;;;;;;5052990;28;20512;-69
2021/12/12 11:45:24;;;;;;;21.13;19.93;;;9.00;99.90;;;;;;5056654;28;20475;-74
2021/12/12 11:48:02;;;;;;;21.47;20.17;;;9.00;99.90;;;;;;5053400;28;20472;-71
2021/12/12 11:50:38;;;;;;;20.63;19.10;;;9.00;99.90;;;;;;5056219;28;20464;-71
2021/12/12 11:53:14;;;;;;;20.07;18.70;;;9.10;99.90;;;;;;5054181;28;20884;-71
2021/12/12 11:55:46;;;;;;;20.00;18.70;;;9.10;99.90;;;;;;5054522;28;20474;-75
2021/12/12 11:58:23;;;;;;;18.97;17.77;;;9.20;99.90;;;;;;5050833;28;20461;-71
2021/12/12 12:00:58;;;;;;;18.07;17.07;;;9.30;99.90;;;;;;5060017;28;20933;-72
2021/12/12 12:03:33;;;;;;;19.03;17.70;;;9.40;99.90;;;;;;5052798;28;21225;-73
2021/12/12 12:06:21;;;;;;;19.93;18.83;;;9.30;99.90;;;;;;5051219;28;20919;-71
2021/12/12 12:09:06;;;;;;;23.60;22.20;;;9.20;99.90;;;;;;5062588;28;20964;-70
2021/12/12 12:11:55;;;;;;;24.17;22.67;;;9.30;99.90;;;;;;5055692;28;20975;-73
2021/12/12 12:14:28;;;;;;;24.43;22.80;;;9.40;99.90;;;;;;5056713;28;21022;-71
2021/12/12 12:16:59;;;;;;;25.00;23.00;;;9.20;99.90;;;;;;5059419;28;20464;-71
2021/12/12 12:19:43;;;;;;;26.30;24.30;;;9.10;99.90;;;;;;5058189;28;20458;-70
2021/12/12 12:22:26;;;;;;;24.80;23.40;;;9.10;99.90;;;;;;5046822;28;20510;-69
2021/12/12 12:25:15;;;;;;;27.13;25.23;;;9.10;99.90;;;;;;5056323;28;20478;-71
2021/12/12 12:27:48;;;;;;;24.57;23.07;;;9.20;99.90;;;;;;5048299;28;20454;-72
2021/12/12 12:30:52;;;;;;;26.77;24.90;;;9.10;99.90;;;;;;5042682;28;20466;-71
2021/12/12 12:33:59;;;;;;;26.10;24.40;;;9.10;99.90;;;;;;5048944;28;20456;-73
2021/12/12 12:37:31;;;;;;;25.83;23.67;;;9.00;99.90;;;;;;5047227;28;20473;-71
2021/12/12 12:41:08;;;;;;;24.97;23.43;;;9.10;99.90;;;;;;5045024;28;20487;-72
2021/12/12 12:44:14;;;;;;;25.40;23.60;;;9.10;99.90;;;;;;5045846;28;20846;-72
2021/12/12 12:47:38;;;;;;;24.67;23.07;;;9.00;99.90;;;;;;5022467;28;20906;-72
2021/12/12 12:50:42;;;;;;;24.80;22.97;;;9.10;99.90;;;;;;5051289;28;20842;-73
2021/12/12 12:53:42;;;;;;;24.40;23.00;;;9.10;99.90;;;;;;5039755;28;20696;-73
2021/12/12 12:56:42;;;;;;;24.80;23.30;;;9.10;99.90;;;;;;5046225;28;20496;-71
2021/12/12 12:59:22;;;;;;;23.83;22.43;;;9.00;99.90;;;;;;5049768;28;21350;-71
2021/12/12 13:02:00;;;;;;;24.43;22.93;;;9.00;99.90;;;;;;5046553;28;20838;-72
2021/12/12 13:04:33;;;;;;;25.60;24.00;;;8.90;99.90;;;;;;5038895;28;20471;-72
2021/12/12 13:07:09;;;;;;;27.00;25.17;;;9.00;99.90;;;;;;5043988;28;20520;-71
2021/12/12 13:09:45;;;;;;;26.30;24.70;;;9.10;99.90;;;;;;5045733;28;21008;-72
2021/12/12 13:12:38;;;;;;;26.30;24.67;;;9.10;99.90;;;;;;5038839;28;20462;-71
2021/12/12 13:15:19;;;;;;;25.77;24.07;;;9.10;99.90;;;;;;5046833;28;20467;-73
2021/12/12 13:17:54;;;;;;;27.90;26.20;;;9.10;99.90;;;;;;5049948;28;20469;-70
2021/12/12 13:20:32;;;;;;;26.10;24.50;;;9.20;99.90;;;;;;5048072;28;20473;-74